Time;durP1;ratioP1;P1;durP2;ratioP2;P2;SDS_P1;SDS_P2;PMS_P1;PMS_P2;Temp;Humidity;BMP_temperature;BMP_pressure;BME280_temperature;BME280_humidity;BME280_pressure;Samples;Min_cycle;Max_cycle;Signal;HPM_P1;HPM_P2
2022/05/15 00:01:31;;;;;;;0.15;0.13;;;;;;;22.77;45.15;101308.44;4915114;29;20063;-90
2022/05/15 00:04:00;;;;;;;0.57;0.20;;;;;;;22.74;43.47;101316.38;4914177;29;20522;-82
2022/05/15 00:06:28;;;;;;;0.57;0.28;;;;;;;22.77;43.39;101310.22;4915014;29;20490;-85
2022/05/15 00:08:58;;;;;;;1.65;0.95;;;;;;;22.78;45.23;101307.53;4916117;29;20135;-82
2022/05/15 00:11:27;;;;;;;0.10;0.10;;;;;;;22.91;43.39;101310.03;4916943;29;20509;-86
2022/05/15 00:13:56;;;;;;;0.30;0.20;;;;;;;22.97;42.52;101310.81;4930581;29;20122;-88
2022/05/15 00:16:26;;;;;;;0.20;0.10;;;;;;;22.92;42.63;101311.78;4948129;29;20055;-86
2022/05/15 00:18:56;;;;;;;0.57;0.20;;;;;;;22.79;42.79;101311.03;4933704;29;20048;-87
2022/05/15 00:21:24;;;;;;;1.48;0.20;;;;;;;22.76;44.45;101306.69;4935529;29;20123;-88
2022/05/15 00:23:54;;;;;;;0.70;0.20;;;;;;;22.75;44.47;101312.88;4935900;29;20072;-89
2022/05/15 00:26:22;;;;;;;0.15;0.13;;;;;;;22.76;44.27;101314.59;4937565;29;20111;-83
2022/05/15 00:28:51;;;;;;;0.25;0.20;;;;;;;22.70;44.07;101322.59;4934588;29;20350;-86
2022/05/15 00:31:20;;;;;;;1.27;0.25;;;;;;;22.80;43.49;101320.72;4938578;29;20102;-88
2022/05/15 00:33:48;;;;;;;0.73;0.13;;;;;;;22.79;43.69;101327.78;4933665;29;20537;-86
2022/05/15 00:36:18;;;;;;;0.17;0.17;;;;;;;22.84;43.93;101319.81;4933452;29;20106;-87
2022/05/15 00:38:47;;;;;;;0.10;0.10;;;;;;;22.83;43.67;101322.44;4934241;28;20059;-86
2022/05/15 00:41:16;;;;;;;0.10;0.10;;;;;;;22.91;44.80;101321.47;4933285;29;20047;-86
2022/05/15 00:43:46;;;;;;;0.47;0.10;;;;;;;22.95;43.67;101312.63;4933249;29;20044;-84
2022/05/15 00:46:17;;;;;;;0.15;0.10;;;;;;;22.62;44.32;101313.91;4933747;29;20051;-85
2022/05/15 00:48:47;;;;;;;0.40;0.30;;;;;;;22.45;44.37;101313.19;4933239;29;20083;-87
2022/05/15 00:51:24;;;;;;;1.05;0.28;;;;;;;22.38;43.92;101320.31;4933578;29;20399;-89
2022/05/15 00:53:58;;;;;;;1.08;0.13;;;;;;;22.14;45.12;101324.03;4940130;29;20079;-87
2022/05/15 00:56:30;;;;;;;0.40;0.20;;;;;;;22.02;46.02;101321.53;4946362;29;20048;-91
2022/05/15 00:59:04;;;;;;;5.07;0.20;;;;;;;22.02;45.76;101324.16;4947784;29;20051;-89
2022/05/15 01:01:33;;;;;;;1.20;0.20;;;;;;;22.01;46.53;101319.75;4948091;29;20286;-89
2022/05/15 01:04:02;;;;;;;0.85;0.22;;;;;;;21.88;46.54;101314.59;4936189;29;20561;-86
2022/05/15 01:06:33;;;;;;;1.88;0.25;;;;;;;21.82;46.93;101312.00;4937040;29;20127;-85
2022/05/15 01:09:04;;;;;;;0.35;0.22;;;;;;;21.72;46.08;101323.50;4939566;29;20055;-87
2022/05/15 01:11:35;;;;;;;0.75;0.10;;;;;;;21.70;45.88;101320.88;4937966;29;20482;-84
2022/05/15 01:14:09;;;;;;;0.45;0.30;;;;;;;21.72;46.50;101320.88;4947496;29;20054;-90
2022/05/15 01:16:39;;;;;;;1.75;0.30;;;;;;;21.73;45.99;101314.72;4955251;29;20494;-87
2022/05/15 01:19:08;;;;;;;0.82;0.20;;;;;;;21.71;47.01;101301.53;4941452;29;20123;-89
2022/05/15 01:21:42;;;;;;;0.30;0.20;;;;;;;21.75;45.85;101318.22;4942092;29;20107;-90
2022/05/15 01:24:11;;;;;;;0.82;0.20;;;;;;;21.73;45.58;101317.34;4942183;29;20123;-89
2022/05/15 01:26:39;;;;;;;0.60;0.20;;;;;;;21.78;45.69;101312.91;4946705;29;20062;-89
2022/05/15 01:29:09;;;;;;;0.20;0.20;;;;;;;21.77;44.75;101310.31;4956846;29;20086;-89
2022/05/15 01:31:37;;;;;;;0.38;0.17;;;;;;;21.74;45.21;101305.94;4956216;28;20110;-88
2022/05/15 01:34:09;;;;;;;1.08;0.32;;;;;;;21.72;45.15;101312.97;4957228;29;20055;-90
2022/05/15 01:36:40;;;;;;;0.65;0.20;;;;;;;21.66;45.72;101308.63;4956421;29;20083;-88
2022/05/15 01:39:09;;;;;;;1.55;0.20;;;;;;;21.61;45.66;101304.28;4955019;28;20055;-88
2022/05/15 01:41:37;;;;;;;0.93;0.38;;;;;;;21.55;46.24;101297.28;4952449;29;20468;-90
2022/05/15 01:44:06;;;;;;;0.40;0.20;;;;;;;21.52;46.42;101295.56;4950711;29;20047;-86
2022/05/15 01:46:35;;;;;;;0.20;0.10;;;;;;;21.49;44.85;101292.09;4951027;29;20079;-88
2022/05/15 01:49:06;;;;;;;0.50;0.20;;;;;;;21.42;45.12;101293.00;4952098;29;20954;-85
2022/05/15 01:51:35;;;;;;;0.45;0.30;;;;;;;21.35;45.87;101297.41;4950641;29;20058;-85
2022/05/15 01:54:06;;;;;;;0.40;0.40;;;;;;;21.28;45.56;101291.31;4950880;29;20191;-81
2022/05/15 01:56:35;;;;;;;0.50;0.30;;;;;;;21.23;46.42;101282.53;4951578;29;20114;-89
2022/05/15 01:59:05;;;;;;;0.43;0.28;;;;;;;21.18;46.62;101292.22;4954827;29;20055;-86
2022/05/15 02:01:33;;;;;;;0.60;0.28;;;;;;;21.13;46.60;101281.72;4951309;29;20074;-86
2022/05/15 02:04:02;;;;;;;1.60;0.30;;;;;;;21.06;46.69;101293.19;4950804;28;20278;-87
2022/05/15 02:06:30;;;;;;;1.10;0.20;;;;;;;21.00;46.77;101280.03;4950938;29;20102;-87
2022/05/15 02:08:59;;;;;;;1.02;0.30;;;;;;;20.97;47.51;101279.19;4951376;29;20055;-86
2022/05/15 02:11:29;;;;;;;1.23;0.38;;;;;;;20.93;46.94;101273.06;4957283;29;20059;-88
2022/05/15 02:13:57;;;;;;;0.40;0.20;;;;;;;20.84;47.17;101281.88;4955948;29;20055;-88
2022/05/15 02:16:26;;;;;;;0.55;0.30;;;;;;;20.79;47.91;101285.41;4952333;29;20505;-88
2022/05/15 02:18:57;;;;;;;2.55;0.40;;;;;;;20.75;47.98;101294.19;4936818;29;20044;-91
2022/05/15 02:21:26;;;;;;;1.75;0.30;;;;;;;20.69;48.16;101284.59;4933765;29;20049;-88
2022/05/15 02:23:55;;;;;;;0.63;0.30;;;;;;;20.61;48.36;101275.84;4933230;29;20075;-89
2022/05/15 02:26:23;;;;;;;0.40;0.25;;;;;;;20.64;48.66;101289.88;4935291;29;20102;-90
2022/05/15 02:28:53;;;;;;;0.35;0.35;;;;;;;20.60;49.28;101289.88;4936221;29;20091;-90
2022/05/15 02:31:22;;;;;;;0.75;0.30;;;;;;;20.54;49.28;101290.72;4942897;29;20090;-90
2022/05/15 02:33:50;;;;;;;0.80;0.40;;;;;;;20.50;48.89;101289.88;4956344;29;20058;-90
2022/05/15 02:36:19;;;;;;;0.30;0.30;;;;;;;20.47;50.17;101300.38;4957213;29;20146;-91
2022/05/15 02:38:47;;;;;;;0.80;0.30;;;;;;;20.39;49.61;101290.78;4955469;28;20059;-87
2022/05/15 02:41:16;;;;;;;0.93;0.30;;;;;;;20.33;49.16;101282.91;4952547;29;20133;-89
2022/05/15 02:43:44;;;;;;;0.82;0.30;;;;;;;20.29;49.65;101306.59;4953202;29;20525;-89
2022/05/15 02:46:15;;;;;;;2.33;0.30;;;;;;;20.24;49.85;101303.06;4954737;29;20125;-88
2022/05/15 02:51:29;;;;;;;0.20;0.20;;;;;;;20.15;51.00;101308.34;4951453;29;20141;-85
2022/05/15 02:53:57;;;;;;;0.45;0.20;;;;;;;20.11;50.69;101301.31;4950381;29;20048;-87
2022/05/15 02:56:29;;;;;;;0.63;0.30;;;;;;;20.08;50.86;101306.59;4955549;29;20059;-90
2022/05/15 02:58:58;;;;;;;1.75;0.40;;;;;;;20.03;50.98;101297.84;4954235;29;20095;-88
2022/05/15 03:01:28;;;;;;;1.63;0.40;;;;;;;19.99;51.00;101310.09;4956174;29;20090;-91
2022/05/15 03:03:57;;;;;;;0.47;0.30;;;;;;;19.96;50.68;101309.25;4956000;28;20528;-84
2022/05/15 03:06:25;;;;;;;0.95;0.30;;;;;;;19.89;51.07;101305.72;4958706;29;20067;-88
2022/05/15 03:08:54;;;;;;;0.63;0.32;;;;;;;19.85;51.68;101304.84;4955712;29;20047;-86
2022/05/15 03:11:23;;;;;;;0.82;0.40;;;;;;;19.80;52.09;101309.22;4956683;29;20059;-86
2022/05/15 03:13:52;;;;;;;0.52;0.40;;;;;;;19.72;52.43;101308.34;4956684;29;20043;-84
2022/05/15 03:16:21;;;;;;;0.75;0.38;;;;;;;19.66;53.50;101308.31;4950343;29;20666;-83
2022/05/15 03:18:53;;;;;;;0.35;0.35;;;;;;;19.60;53.25;101311.81;4937198;29;20051;-90
2022/05/15 03:21:31;;;;;;;1.08;0.30;;;;;;;19.50;53.24;101302.19;4939460;29;20058;-89
2022/05/15 03:24:01;;;;;;;0.52;0.50;;;;;;;19.50;54.62;101311.81;4936698;29;20051;-87
2022/05/15 03:26:31;;;;;;;1.52;0.47;;;;;;;19.42;55.52;101331.03;4932418;29;20060;-86
2022/05/15 03:28:59;;;;;;;2.67;0.40;;;;;;;19.34;56.42;101318.78;4934304;29;20517;-87
2022/05/15 03:31:28;;;;;;;1.05;0.30;;;;;;;19.22;56.10;101327.50;4943912;29;20093;-86
2022/05/15 03:33:59;;;;;;;0.40;0.30;;;;;;;19.17;55.99;101326.56;4950552;29;20047;-83
2022/05/15 03:36:27;;;;;;;0.70;0.50;;;;;;;19.09;56.62;101325.69;4950352;29;20130;-86
2022/05/15 03:38:56;;;;;;;0.75;0.20;;;;;;;19.04;56.52;101328.31;4950554;28;20052;-86
2022/05/15 03:41:25;;;;;;;0.65;0.35;;;;;;;19.01;56.62;101320.41;4950222;29;20090;-85
2022/05/15 03:43:53;;;;;;;0.52;0.30;;;;;;;18.99;57.00;101320.41;4950238;29;20106;-88
2022/05/15 03:46:22;;;;;;;0.47;0.32;;;;;;;18.97;57.07;101319.53;4952311;29;20493;-88
2022/05/15 03:48:50;;;;;;;0.40;0.20;;;;;;;18.95;57.92;101318.63;4951480;29;20051;-84
2022/05/15 03:51:21;;;;;;;1.35;0.40;;;;;;;18.89;59.82;101315.97;4950755;29;20047;-85
2022/05/15 03:53:50;;;;;;;2.40;0.35;;;;;;;18.86;60.39;101328.22;4952767;28;20054;-85
2022/05/15 03:56:49;;;;;;;4.47;0.57;;;;;;;18.71;64.69;101327.22;4955402;29;20049;-84
2022/05/15 03:59:07;;;;;;;0.77;0.30;;;;;;;18.50;64.01;101335.84;4956006;28;20469;-84
2022/05/15 04:01:35;;;;;;;0.32;0.30;;;;;;;18.36;63.96;101338.38;4953838;28;20493;-84
2022/05/15 04:04:04;;;;;;;0.40;0.30;;;;;;;18.26;64.92;101340.94;4952852;29;20106;-85
2022/05/15 04:06:34;;;;;;;1.75;0.40;;;;;;;18.18;65.96;101349.59;4954325;29;20089;-86
2022/05/15 04:09:03;;;;;;;0.30;0.20;;;;;;;18.11;65.46;101353.03;4956717;29;20044;-86
2022/05/15 04:11:31;;;;;;;1.75;0.30;;;;;;;18.04;65.32;101351.25;4954839;29;20402;-87
2022/05/15 04:14:00;;;;;;;3.35;0.40;;;;;;;18.00;65.52;101354.69;4956090;29;20051;-87
2022/05/15 04:16:29;;;;;;;2.05;0.40;;;;;;;17.95;66.69;101341.56;4959983;29;20055;-85
2022/05/15 04:18:57;;;;;;;2.58;0.30;;;;;;;17.88;67.58;101347.63;4953501;29;20051;-85
2022/05/15 04:21:26;;;;;;;1.70;0.40;;;;;;;17.86;66.93;101356.31;4954177;29;20051;-87
2022/05/15 04:23:56;;;;;;;1.30;0.30;;;;;;;17.88;65.84;101350.22;4946471;29;20705;-87
2022/05/15 04:26:24;;;;;;;1.85;0.38;;;;;;;17.91;66.59;101346.75;4938298;29;20123;-84
2022/05/15 04:28:54;;;;;;;0.98;0.30;;;;;;;17.93;67.22;101355.50;4952462;29;20130;-83
2022/05/15 04:31:22;;;;;;;0.73;0.30;;;;;;;17.94;66.75;101359.91;4952173;29;20051;-83
2022/05/15 04:33:51;;;;;;;2.63;0.47;;;;;;;17.90;66.88;101358.97;4952501;29;20047;-84
2022/05/15 04:36:19;;;;;;;1.20;0.30;;;;;;;17.91;68.13;101354.59;4952918;29;20059;-83
2022/05/15 04:38:56;;;;;;;2.85;0.40;;;;;;;17.80;70.55;101349.28;4952904;28;20295;-86
2022/05/15 04:41:25;;;;;;;0.70;0.30;;;;;;;17.81;70.06;101369.38;4951760;29;20058;-83
2022/05/15 04:43:56;;;;;;;1.85;0.35;;;;;;;17.71;71.72;101370.13;4953251;29;20062;-86
2022/05/15 04:46:27;;;;;;;1.15;0.40;;;;;;;17.57;70.95;101369.97;4954508;29;20130;-84
2022/05/15 04:48:55;;;;;;;1.00;0.20;;;;;;;17.49;72.57;101377.72;4952888;29;20055;-83
2022/05/15 04:51:24;;;;;;;2.88;0.88;;;;;;;17.50;72.61;101384.72;4954163;29;20047;-85
2022/05/15 04:53:53;;;;;;;1.20;0.68;;;;;;;17.52;71.04;101384.72;4952692;29;20134;-82
2022/05/15 04:56:23;;;;;;;1.48;0.40;;;;;;;17.57;74.84;101386.56;4952117;29;20098;-83
2022/05/15 04:58:52;;;;;;;2.58;0.30;;;;;;;17.60;75.74;101375.22;4952012;29;20540;-85
2022/05/15 05:01:24;;;;;;;0.63;0.30;;;;;;;17.61;78.66;101381.34;4951941;28;20055;-84
2022/05/15 05:03:52;;;;;;;;;;;;;;;17.56;75.28;101383.91;4952055;29;20047;-82
2022/05/15 05:06:21;;;;;;;1.65;0.30;;;;;;;17.54;76.71;101381.25;4950884;28;20369;-83
2022/05/15 05:08:50;;;;;;;0.95;0.47;;;;;;;17.57;75.59;101383.06;4951752;29;20225;-83
2022/05/15 05:11:19;;;;;;;3.72;0.77;;;;;;;17.57;74.07;101375.22;4951663;29;20059;-83
2022/05/15 05:13:49;;;;;;;1.38;0.80;;;;;;;17.58;72.85;101367.34;4951730;29;20059;-85
2022/05/15 05:16:18;;;;;;;1.88;0.45;;;;;;;17.59;72.52;101373.47;4948434;29;20506;-83
2022/05/15 05:18:47;;;;;;;3.03;0.60;;;;;;;17.57;72.66;101376.09;4932743;29;20051;-83
2022/05/15 05:21:24;;;;;;;1.95;0.50;;;;;;;17.55;73.46;101371.69;4932230;29;20052;-83
2022/05/15 05:23:53;;;;;;;1.00;0.50;;;;;;;17.47;73.06;101368.09;4931773;29;20056;-84
2022/05/15 05:26:21;;;;;;;5.63;0.57;;;;;;;17.44;75.76;101368.09;4935529;29;20079;-83
2022/05/15 05:28:51;;;;;;;0.30;0.30;;;;;;;17.37;73.26;101360.16;4951682;29;20158;-82
2022/05/15 05:31:20;;;;;;;0.75;0.22;;;;;;;17.34;72.86;101367.06;4949343;29;20055;-83
2022/05/15 05:33:48;;;;;;;1.35;0.30;;;;;;;17.27;73.38;101360.94;4932210;29;20056;-85
2022/05/15 05:36:18;;;;;;;0.75;0.30;;;;;;;17.16;75.01;101352.94;4932223;29;20062;-83
2022/05/15 05:38:53;;;;;;;0.60;0.40;;;;;;;17.17;75.07;101374.75;4932602;28;20518;-81
2022/05/15 05:41:28;;;;;;;0.70;0.43;;;;;;;17.08;75.91;101374.63;4933228;29;20142;-85
2022/05/15 05:44:00;;;;;;;1.80;0.75;;;;;;;17.06;76.01;101365.88;4933699;29;20137;-81
2022/05/15 05:46:28;;;;;;;2.08;0.80;;;;;;;17.04;76.16;101368.50;4934490;29;20055;-81
2022/05/15 05:48:57;;;;;;;1.67;0.73;;;;;;;17.02;75.83;101379.75;4932432;29;20047;-82
2022/05/15 05:51:26;;;;;;;0.93;0.60;;;;;;;17.00;76.49;101373.66;4932438;29;20339;-82
2022/05/15 05:53:55;;;;;;;0.75;0.50;;;;;;;17.02;76.35;101385.00;4931054;29;20051;-83
2022/05/15 05:56:23;;;;;;;1.08;0.47;;;;;;;17.01;75.91;101372.78;4931844;29;20135;-84
2022/05/15 05:58:51;;;;;;;1.88;0.50;;;;;;;17.00;76.82;101382.38;4931675;29;20494;-83
2022/05/15 06:01:22;;;;;;;0.55;0.30;;;;;;;16.95;78.21;101374.47;4931171;29;20074;-82
2022/05/15 06:06:32;;;;;;;0.50;0.30;;;;;;;16.86;78.01;101374.34;4909203;29;20154;-82
2022/05/15 06:09:00;;;;;;;0.25;0.20;;;;;;;16.82;78.00;101366.44;4931613;29;20091;-82
2022/05/15 06:11:29;;;;;;;1.45;0.43;;;;;;;16.76;78.38;101351.53;4931367;29;20056;-82
2022/05/15 06:13:57;;;;;;;1.98;0.30;;;;;;;16.79;78.96;101356.84;4939183;29;20051;-83
2022/05/15 06:16:27;;;;;;;0.55;0.40;;;;;;;16.82;79.68;101361.22;4946094;29;20430;-82
2022/05/15 06:18:56;;;;;;;4.22;0.55;;;;;;;16.77;80.12;101355.91;4931198;29;20501;-82
2022/05/15 06:21:24;;;;;;;2.08;0.35;;;;;;;16.76;80.47;101362.84;4931688;29;20047;-82
2022/05/15 06:23:53;;;;;;;1.65;0.50;;;;;;;16.76;80.21;101362.84;4931264;29;20123;-82
2022/05/15 06:26:21;;;;;;;0.40;0.35;;;;;;;16.78;79.90;101349.81;4933088;29;20053;-83
2022/05/15 06:28:50;;;;;;;0.38;0.30;;;;;;;16.78;79.41;101352.41;4950570;29;20050;-82
2022/05/15 06:31:18;;;;;;;3.03;0.52;;;;;;;16.78;80.99;101346.31;4950322;29;20051;-83
2022/05/15 06:33:48;;;;;;;0.70;0.52;;;;;;;16.72;80.88;101342.78;4950374;29;20043;-83
2022/05/15 06:36:17;;;;;;;3.83;1.88;;;;;;;16.71;81.58;101351.44;4949931;29;20051;-82
2022/05/15 06:38:45;;;;;;;0.80;0.47;;;;;;;16.67;80.82;101348.78;4953855;28;20130;-83
2022/05/15 06:41:14;;;;;;;0.40;0.30;;;;;;;16.64;81.29;101353.97;4952929;29;20596;-82
2022/05/15 06:43:43;;;;;;;2.65;0.60;;;;;;;16.61;82.76;101353.94;4954145;29;20584;-83
2022/05/15 06:46:12;;;;;;;0.77;0.22;;;;;;;16.63;83.33;101349.59;4953280;29;20055;-83
2022/05/15 06:48:40;;;;;;;0.10;0.10;;;;;;;16.64;82.10;101340.91;4954033;29;20051;-83
2022/05/15 06:51:14;;;;;;;5.10;0.47;;;;;;;16.67;87.82;101339.19;4950701;29;20090;-82
2022/05/15 06:53:42;;;;;;;1.38;0.52;;;;;;;16.64;89.30;101333.94;4950780;29;20047;-83
2022/05/15 06:58:56;;;;;;;0.20;0.13;;;;;;;16.59;94.20;101337.34;4951190;28;20130;-83
2022/05/15 07:01:25;;;;;;;1.65;0.30;;;;;;;16.59;91.14;101327.78;4951197;29;20051;-84
2022/05/15 07:03:53;;;;;;;3.72;0.47;;;;;;;16.61;89.36;101328.69;4952134;29;20051;-83
2022/05/15 07:06:24;;;;;;;2.97;0.50;;;;;;;16.62;92.23;101326.94;4951448;29;20047;-84
2022/05/15 07:08:52;;;;;;;1.88;0.45;;;;;;;16.64;93.68;101325.22;4952455;29;20047;-84
2022/05/15 07:11:20;;;;;;;2.08;0.43;;;;;;;16.62;91.81;101321.72;4954470;29;20145;-84
2022/05/15 07:13:49;;;;;;;0.70;0.50;;;;;;;16.58;94.52;101323.41;4956782;29;20043;-85
2022/05/15 07:16:17;;;;;;;2.90;0.43;;;;;;;16.55;91.33;101321.63;4951951;29;20083;-84
2022/05/15 07:18:46;;;;;;;1.38;0.30;;;;;;;16.53;90.40;101323.31;4934196;29;20729;-84
2022/05/15 07:21:14;;;;;;;1.13;0.28;;;;;;;16.53;89.38;101317.22;4933051;29;20075;-84
2022/05/15 07:23:44;;;;;;;0.68;0.22;;;;;;;16.52;88.64;101324.19;4933011;29;20063;-84
2022/05/15 07:26:13;;;;;;;1.45;0.43;;;;;;;16.51;87.83;101318.94;4932876;29;20051;-83
2022/05/15 07:28:41;;;;;;;0.73;0.25;;;;;;;16.50;88.00;101323.28;4939121;29;20095;-84
2022/05/15 07:31:10;;;;;;;0.30;0.20;;;;;;;16.50;87.27;101317.19;4937340;29;20087;-84
2022/05/15 07:33:38;;;;;;;1.25;0.50;;;;;;;16.49;86.85;101324.16;4965774;29;20067;-84
2022/05/15 07:36:07;;;;;;;1.95;0.50;;;;;;;16.48;87.99;101322.41;4960803;29;20051;-86
2022/05/15 07:38:36;;;;;;;3.15;0.73;;;;;;;16.48;87.51;101325.00;4956736;28;20142;-85
2022/05/15 07:41:06;;;;;;;0.60;0.55;;;;;;;16.48;86.77;101311.94;4956733;29;20109;-85
2022/05/15 07:43:35;;;;;;;1.83;0.70;;;;;;;16.44;87.15;101314.50;4958653;29;20062;-85
2022/05/15 07:46:03;;;;;;;3.10;0.65;;;;;;;16.40;87.99;101321.44;4959422;29;20579;-85
2022/05/15 07:48:32;;;;;;;2.40;0.80;;;;;;;16.39;87.79;101303.97;4955167;29;20051;-84
2022/05/15 07:51:00;;;;;;;1.15;0.68;;;;;;;16.37;88.36;101310.03;4953947;29;20091;-83
2022/05/15 07:53:29;;;;;;;1.92;0.70;;;;;;;16.34;88.29;101300.44;4958102;29;20051;-82
2022/05/15 07:56:03;;;;;;;3.50;0.98;;;;;;;16.32;88.84;101313.47;4953486;29;20126;-83
2022/05/15 07:58:33;;;;;;;2.35;0.60;;;;;;;16.23;91.46;101308.09;4953232;29;20468;-83
2022/05/15 08:01:04;;;;;;;6.05;1.50;;;;;;;16.15;92.17;101308.81;4953814;28;20051;-84
2022/05/15 08:03:37;;;;;;;16.20;4.03;;;;;;;16.09;91.90;101302.66;4954131;29;20062;-83
2022/05/15 08:08:57;;;;;;;18.13;6.30;;;;;;;15.98;92.72;101285.94;4900429;29;20048;-83
2022/05/15 08:11:28;;;;;;;11.45;2.20;;;;;;;16.10;91.50;101288.78;4953774;29;20078;-84
2022/05/15 08:14:00;;;;;;;5.00;1.38;;;;;;;16.13;92.35;101285.34;4954074;29;20075;-84
2022/05/15 08:16:28;;;;;;;;;;;;;;;16.13;91.33;101273.16;4949588;29;20059;-84
2022/05/15 08:24:42;;;;;;;3.83;1.60;;;;;;;16.08;91.60;101261.78;4935060;29;20529;-83
2022/05/15 08:27:11;;;;;;;11.38;2.90;;;;;;;16.05;92.35;101266.91;4944232;29;20047;-83
2022/05/15 08:29:42;;;;;;;4.30;1.27;;;;;;;16.02;93.07;101261.66;4956144;29;20089;-83
2022/05/15 08:32:11;;;;;;;11.60;2.30;;;;;;;16.01;93.21;101259.94;4945180;29;20047;-84
2022/05/15 08:34:39;;;;;;;12.20;3.30;;;;;;;15.98;93.74;101258.97;4934588;29;20051;-83
2022/05/15 08:37:08;;;;;;;11.82;3.45;;;;;;;15.95;93.32;101256.34;4934229;29;20064;-84
2022/05/15 08:39:36;;;;;;;9.85;2.65;;;;;;;15.93;93.85;101256.31;4934457;28;20162;-83
2022/05/15 08:42:22;;;;;;;11.00;3.63;;;;;;;15.91;92.98;101232.78;4934343;29;20122;-84
2022/05/15 08:44:59;;;;;;;8.68;2.70;;;;;;;15.92;93.44;101244.13;4936220;29;20094;-83
2022/05/15 08:47:35;;;;;;;2.88;1.40;;;;;;;15.93;93.78;101238.03;4935112;29;20597;-84
2022/05/15 08:50:08;;;;;;;6.45;1.77;;;;;;;15.90;94.75;101241.47;4949399;29;20048;-84
2022/05/15 08:52:44;;;;;;;4.65;1.65;;;;;;;15.90;94.42;101225.81;4942335;29;20123;-84
2022/05/15 08:55:16;;;;;;;4.72;1.83;;;;;;;15.89;93.56;101228.41;4938367;29;20052;-83
2022/05/15 08:57:53;;;;;;;3.42;0.85;;;;;;;15.89;94.92;101223.19;4934417;29;20051;-83
2022/05/15 09:00:27;;;;;;;4.45;1.48;;;;;;;15.86;95.28;101218.78;4934206;29;20169;-84
2022/05/15 09:02:57;;;;;;;4.05;1.15;;;;;;;15.84;94.87;101223.09;4933734;29;20054;-83
2022/05/15 09:05:27;;;;;;;5.20;2.00;;;;;;;15.83;96.54;101213.53;4934323;29;20102;-83
2022/05/15 09:08:04;;;;;;;3.97;1.20;;;;;;;15.83;96.47;101228.31;4933920;29;20047;-83
2022/05/15 09:10:38;;;;;;;4.22;1.08;;;;;;;15.84;96.97;101209.19;4933157;29;20060;-83
2022/05/15 09:13:11;;;;;;;2.15;0.55;;;;;;;15.84;97.31;101211.81;4933178;29;20099;-84
2022/05/15 09:15:53;;;;;;;1.55;0.63;;;;;;;15.83;97.22;101204.84;4952348;29;20110;-83
2022/05/15 09:18:21;;;;;;;0.87;0.50;;;;;;;15.85;97.50;101203.09;4932823;29;20086;-83
2022/05/15 09:21:00;;;;;;;0.60;0.40;;;;;;;15.84;97.19;101196.16;4932697;29;20051;-83
2022/05/15 09:23:34;;;;;;;1.20;0.40;;;;;;;15.86;96.64;101194.44;4934952;29;20048;-83
2022/05/15 09:26:12;;;;;;;1.52;0.73;;;;;;;15.87;96.99;101190.97;4935890;29;20058;-84
2022/05/15 09:28:44;;;;;;;1.95;0.50;;;;;;;15.88;96.60;101187.50;4934149;29;20498;-83
2022/05/15 09:31:23;;;;;;;;;;;;;;;15.82;97.31;101174.38;4933435;29;20134;-83
2022/05/15 09:33:55;;;;;;;0.95;0.43;;;;;;;15.89;96.98;101181.44;4951298;29;19950;-83
2022/05/15 09:36:26;;;;;;;0.50;0.43;;;;;;;15.89;97.10;101176.22;4951222;29;20109;-82
2022/05/15 09:39:15;;;;;;;0.80;0.45;;;;;;;15.91;96.77;101164.06;4951828;28;20070;-83
2022/05/15 09:44:30;;;;;;;0.55;0.47;;;;;;;15.91;96.93;101154.50;4951519;29;20054;-84
2022/05/15 09:47:21;;;;;;;0.40;0.38;;;;;;;15.91;96.54;101145.78;4951573;29;20509;-83
2022/05/15 09:49:49;;;;;;;1.30;0.68;;;;;;;15.91;96.08;101137.97;4951282;29;20055;-83
2022/05/15 09:52:24;;;;;;;0.93;0.65;;;;;;;15.88;97.39;101130.09;4950897;28;20059;-83
2022/05/15 09:54:53;;;;;;;0.85;0.50;;;;;;;15.84;97.17;101125.69;4951949;29;20420;-83
2022/05/15 09:57:25;;;;;;;0.70;0.47;;;;;;;15.84;97.74;101126.56;4950950;29;20053;-83
2022/05/15 10:00:00;;;;;;;0.68;0.47;;;;;;;15.81;98.13;101123.91;4951137;28;20365;-82
2022/05/15 10:02:40;;;;;;;0.77;0.50;;;;;;;15.79;99.21;101125.63;4950574;29;20063;-82
2022/05/15 10:05:17;;;;;;;1.52;0.60;;;;;;;15.75;100.00;101130.78;4950932;29;20111;-82
2022/05/15 10:07:53;;;;;;;0.93;0.40;;;;;;;15.71;100.00;101124.63;4951176;29;20109;-82
2022/05/15 10:10:25;;;;;;;0.70;0.50;;;;;;;15.70;100.00;101128.97;4951538;29;20055;-84
2022/05/15 10:12:57;;;;;;;2.03;0.50;;;;;;;15.73;100.00;101116.84;4951114;29;20104;-83
2022/05/15 10:15:33;;;;;;;0.95;0.32;;;;;;;15.76;100.00;101119.47;4951557;29;20086;-84
2022/05/15 10:18:05;;;;;;;0.30;0.30;;;;;;;15.77;100.00;101109.06;4935403;29;20052;-83
2022/05/15 10:20:39;;;;;;;0.50;0.38;;;;;;;15.79;100.00;101104.75;4932718;29;20115;-83
2022/05/15 10:23:13;;;;;;;1.15;0.47;;;;;;;15.79;100.00;101111.72;4931696;29;20135;-82
2022/05/15 10:25:51;;;;;;;2.97;0.40;;;;;;;15.82;100.00;101106.53;4947704;29;20052;-82
2022/05/15 10:28:32;;;;;;;0.85;0.60;;;;;;;15.85;100.00;101096.13;4951246;29;20055;-84
2022/05/15 10:31:05;;;;;;;1.58;0.45;;;;;;;15.86;100.00;101084.84;4939313;29;20107;-83
2022/05/15 10:33:38;;;;;;;0.60;0.43;;;;;;;15.87;100.00;101091.81;4914326;29;20063;-84
2022/05/15 10:36:19;;;;;;;1.63;0.57;;;;;;;15.85;100.00;101089.19;4914456;29;20139;-84
2022/05/15 10:38:57;;;;;;;1.45;0.68;;;;;;;15.83;100.00;101087.41;4923683;28;20155;-83
2022/05/15 10:41:32;;;;;;;4.80;0.50;;;;;;;15.82;100.00;101081.31;4932787;29;20052;-83
2022/05/15 10:44:14;;;;;;;3.10;0.85;;;;;;;15.83;100.00;101069.16;4934134;29;20047;-83
2022/05/15 10:46:48;;;;;;;0.60;0.40;;;;;;;15.82;100.00;101072.59;4932294;29;20048;-82
2022/05/15 10:49:37;;;;;;;1.48;0.65;;;;;;;15.80;100.00;101066.47;4931170;29;20438;-81
2022/05/15 10:52:13;;;;;;;1.27;0.50;;;;;;;15.74;100.00;101053.38;4927446;29;20086;-82
2022/05/15 10:57:50;;;;;;;0.73;0.52;;;;;;;15.70;100.00;101037.66;4931398;29;20066;-82
2022/05/15 11:00:31;;;;;;;0.85;0.52;;;;;;;15.66;100.00;101028.00;4930854;29;20058;-82
2022/05/15 11:03:24;;;;;;;1.35;0.65;;;;;;;15.73;100.00;101030.75;4930946;29;20517;-82
2022/05/15 11:06:15;;;;;;;0.85;0.32;;;;;;;15.73;100.00;101028.13;4935386;29;20052;-83
2022/05/15 11:08:50;;;;;;;0.57;0.30;;;;;;;15.71;100.00;101017.66;4935549;29;20486;-82
2022/05/15 11:11:24;;;;;;;0.20;0.20;;;;;;;15.70;100.00;101010.69;4934858;29;20211;-82
2022/05/15 11:13:57;;;;;;;0.63;0.28;;;;;;;15.68;100.00;101005.44;4944510;29;20043;-83
2022/05/15 11:16:34;;;;;;;0.60;0.35;;;;;;;15.64;100.00;101005.38;4955959;29;20039;-83
2022/05/15 11:19:32;;;;;;;0.30;0.28;;;;;;;15.61;100.00;101003.59;4958109;29;20081;-83
2022/05/15 11:22:12;;;;;;;0.38;0.30;;;;;;;15.60;100.00;101004.47;4954510;29;20075;-83
2022/05/15 11:24:50;;;;;;;0.50;0.25;;;;;;;15.60;100.00;101003.56;4942657;29;20485;-83
2022/05/15 11:27:27;;;;;;;0.95;0.30;;;;;;;15.59;100.00;100988.78;4953705;29;20055;-82
2022/05/15 11:30:00;;;;;;;1.80;0.55;;;;;;;15.56;100.00;100987.03;4942139;29;20514;-83
2022/05/15 11:32:32;;;;;;;2.55;1.05;;;;;;;15.52;100.00;100993.06;4941214;29;20051;-83
2022/05/15 11:35:13;;;;;;;0.32;0.22;;;;;;;15.50;100.00;100986.94;4934378;29;20515;-82
2022/05/15 11:37:54;;;;;;;0.20;0.20;;;;;;;15.48;100.00;100986.03;4934514;29;20123;-82
2022/05/15 11:40:33;;;;;;;0.52;0.38;;;;;;;15.46;100.00;100977.31;4949336;28;20513;-82
2022/05/15 11:43:22;;;;;;;1.48;0.38;;;;;;;15.45;100.00;100984.28;4952785;29;20054;-82
2022/05/15 11:45:52;;;;;;;2.00;0.50;;;;;;;15.42;100.00;100976.44;4953887;29;20078;-83
2022/05/15 11:48:24;;;;;;;1.00;0.45;;;;;;;15.40;100.00;100969.44;4943370;29;20094;-83
2022/05/15 11:50:59;;;;;;;1.95;0.40;;;;;;;15.38;100.00;100966.81;4934688;29;20047;-83
2022/05/15 11:53:33;;;;;;;1.42;0.30;;;;;;;15.35;100.00;100974.59;4934014;29;20062;-83
2022/05/15 11:56:22;;;;;;;1.65;0.30;;;;;;;15.31;100.00;100975.41;4934359;29;20671;-83
2022/05/15 11:58:56;;;;;;;0.20;0.20;;;;;;;15.29;100.00;100975.38;4937695;29;20079;-82
2022/05/15 12:01:44;;;;;;;0.40;0.40;;;;;;;15.27;100.00;100966.66;4953116;29;20059;-82
2022/05/15 12:04:22;;;;;;;0.85;0.30;;;;;;;15.25;100.00;100957.94;4952460;29;20062;-81
2022/05/15 12:07:12;;;;;;;0.28;0.28;;;;;;;15.24;100.00;100958.81;4934334;29;20051;-81